Time;durP1;ratioP1;P1;durP2;ratioP2;P2;SDS_P1;SDS_P2;PMS_P1;PMS_P2;Temp;Humidity;BMP_temperature;BMP_pressure;BME280_temperature;BME280_humidity;BME280_pressure;Samples;Min_cycle;Max_cycle;Signal;HPM_P1;HPM_P2
2023/09/30 00:02:20;;;;;;;;;;;;;;;;;;5091294;28;966;-67
2023/09/30 00:04:45;;;;;;;;;;;;;;;;;;5090381;28;1040;-67
2023/09/30 00:07:10;;;;;;;;;;;;;;;;;;5090012;28;1911;-67
2023/09/30 00:09:35;;;;;;;;;;;;;;;;;;5089381;28;955;-67
2023/09/30 00:12:01;;;;;;;;;;;;;;;;;;5091148;28;1061;-67
2023/09/30 00:14:26;;;;;;;;;;;;;;;;;;5089844;28;1567;-67
2023/09/30 00:16:52;;;;;;;;;;;;;;;;;;5089762;28;1456;-67
2023/09/30 00:19:17;;;;;;;;;;;;;;;;;;5091430;28;837;-66
2023/09/30 00:21:42;;;;;;;;;;;;;;;;;;5091057;28;947;-66
2023/09/30 00:24:08;;;;;;;;;;;;;;;;;;5091239;28;919;-66
2023/09/30 00:26:33;;;;;;;;;;;;;;;;;;5091188;28;1894;-66
2023/09/30 00:28:58;;;;;;;;;;;;;;;;;;5091200;28;837;-66
2023/09/30 00:31:23;;;;;;;;;;;;;;;;;;5090204;28;1299;-66
2023/09/30 00:33:48;;;;;;;;;;;;;;;;;;5089426;28;1198;-66
2023/09/30 00:36:14;;;;;;;;;;;;;;;;;;5091516;28;943;-66
2023/09/30 00:38:40;;;;;;;;;;;;;;;;;;5090714;28;1215;-67
2023/09/30 00:41:05;;;;;;;;;;;;;;;;;;5090794;28;880;-67
2023/09/30 00:43:32;;;;;;;;;;;;;;;;;;5090906;28;867;-67
2023/09/30 00:46:14;;;;;;;;;;;;;;;;;;5089578;28;1914;-67
2023/09/30 00:48:39;;;;;;;;;;;;;;;;;;5090473;28;1535;-66
2023/09/30 00:51:06;;;;;;;;;;;;;;;;;;5090707;28;1295;-67
2023/09/30 00:53:31;;;;;;;;;;;;;;;;;;5090205;28;1367;-67
2023/09/30 00:55:56;;;;;;;;;;;;;;;;;;5091218;28;836;-67
2023/09/30 00:58:25;;;;;;;;;;;;;;;;;;5073665;28;1068;-67
2023/09/30 01:00:51;;;;;;;;;;;;;;;;;;5092139;28;900;-67
2023/09/30 01:03:16;;;;;;;;;;;;;;;;;;5095848;28;825;-67
2023/09/30 01:05:42;;;;;;;;;;;;;;;;;;5094642;28;1952;-67
2023/09/30 01:08:08;;;;;;;;;;;;;;;;;;5095594;28;1002;-66
2023/09/30 01:10:33;;;;;;;;;;;;;;;;;;5094552;28;927;-67
2023/09/30 01:12:59;;;;;;;;;;;;;;;;;;5094145;28;911;-67
2023/09/30 01:15:24;;;;;;;;;;;;;;;;;;5094153;28;1176;-67
2023/09/30 01:17:49;;;;;;;;;;;;;;;;;;5092392;28;887;-67
2023/09/30 01:20:19;;;;;;;;;;;;;;;;;;5092821;28;1323;-67
2023/09/30 01:22:45;;;;;;;;;;;;;;;;;;5093703;28;817;-67
2023/09/30 01:25:11;;;;;;;;;;;;;;;;;;5093425;28;844;-67
2023/09/30 01:27:36;;;;;;;;;;;;;;;;;;5092512;28;1660;-67
2023/09/30 01:30:02;;;;;;;;;;;;;;;;;;5093254;28;828;-66
2023/09/30 01:32:28;;;;;;;;;;;;;;;;;;5094040;28;841;-67
2023/09/30 01:34:53;;;;;;;;;;;;;;;;;;5093362;28;919;-67
2023/09/30 01:37:18;;;;;;;;;;;;;;;;;;5093624;28;1058;-67
2023/09/30 01:39:45;;;;;;;;;;;;;;;;;;5092096;28;1167;-67
2023/09/30 01:42:10;;;;;;;;;;;;;;;;;;5092142;28;1230;-67
2023/09/30 01:44:36;;;;;;;;;;;;;;;;;;5092236;28;1127;-67
2023/09/30 01:47:01;;;;;;;;;;;;;;;;;;5092780;28;1960;-67
2023/09/30 01:49:26;;;;;;;;;;;;;;;;;;5093706;28;1002;-67
2023/09/30 01:51:52;;;;;;;;;;;;;;;;;;5074281;28;1215;-67
2023/09/30 01:54:17;;;;;;;;;;;;;;;;;;5092249;28;1475;-66
2023/09/30 01:56:42;;;;;;;;;;;;;;;;;;5093347;28;852;-67
2023/09/30 01:59:07;;;;;;;;;;;;;;;;;;5093161;28;880;-67
2023/09/30 02:01:33;;;;;;;;;;;;;;;;;;5093800;28;938;-66
2023/09/30 02:03:58;;;;;;;;;;;;;;;;;;5092978;28;837;-66
2023/09/30 02:06:23;;;;;;;;;;;;;;;;;;5091820;28;1905;-66
2023/09/30 02:08:48;;;;;;;;;;;;;;;;;;5091428;28;809;-67
2023/09/30 02:11:14;;;;;;;;;;;;;;;;;;5093451;28;967;-66
2023/09/30 02:13:41;;;;;;;;;;;;;;;;;;5092497;28;950;-67
2023/09/30 02:16:11;;;;;;;;;;;;;;;;;;5092946;28;833;-67
2023/09/30 02:18:36;;;;;;;;;;;;;;;;;;5092957;28;878;-67
2023/09/30 02:21:01;;;;;;;;;;;;;;;;;;5092253;28;946;-67
2023/09/30 02:23:26;;;;;;;;;;;;;;;;;;5092208;28;869;-67
2023/09/30 02:25:52;;;;;;;;;;;;;;;;;;5091904;28;1918;-67
2023/09/30 02:28:17;;;;;;;;;;;;;;;;;;5091381;28;887;-67
2023/09/30 02:30:42;;;;;;;;;;;;;;;;;;5091658;28;1123;-67
2023/09/30 02:33:07;;;;;;;;;;;;;;;;;;5092445;28;999;-67
2023/09/30 02:35:33;;;;;;;;;;;;;;;;;;5093621;28;774;-67
2023/09/30 02:37:58;;;;;;;;;;;;;;;;;;5092762;28;1364;-67
2023/09/30 02:40:25;;;;;;;;;;;;;;;;;;5093312;28;872;-67
2023/09/30 02:42:51;;;;;;;;;;;;;;;;;;5092685;28;804;-67
2023/09/30 02:45:19;;;;;;;;;;;;;;;;;;5093304;28;1955;-67
2023/09/30 02:47:44;;;;;;;;;;;;;;;;;;5092417;28;745;-67
2023/09/30 02:50:13;;;;;;;;;;;;;;;;;;5092114;28;1074;-67
2023/09/30 02:52:40;;;;;;;;;;;;;;;;;;5092482;28;911;-67
2023/09/30 02:55:06;;;;;;;;;;;;;;;;;;5090734;28;1322;-67
2023/09/30 02:57:31;;;;;;;;;;;;;;;;;;5092256;28;999;-65
2023/09/30 02:59:59;;;;;;;;;;;;;;;;;;5091961;28;853;-67
2023/09/30 03:02:24;;;;;;;;;;;;;;;;;;5091641;28;884;-67
2023/09/30 03:04:50;;;;;;;;;;;;;;;;;;5090306;28;1202;-67
2023/09/30 03:07:17;;;;;;;;;;;;;;;;;;5092397;28;1901;-66
2023/09/30 03:09:42;;;;;;;;;;;;;;;;;;5092738;28;942;-66
2023/09/30 03:12:08;;;;;;;;;;;;;;;;;;5091801;28;907;-67
2023/09/30 03:14:34;;;;;;;;;;;;;;;;;;5090929;28;1218;-67
2023/09/30 03:16:59;;;;;;;;;;;;;;;;;;5092040;28;849;-67
2023/09/30 03:19:24;;;;;;;;;;;;;;;;;;5091363;28;813;-66
2023/09/30 03:21:50;;;;;;;;;;;;;;;;;;5091541;28;848;-66
2023/09/30 03:24:15;;;;;;;;;;;;;;;;;;5091891;28;888;-67
2023/09/30 03:26:41;;;;;;;;;;;;;;;;;;5091680;28;1972;-67
2023/09/30 03:29:06;;;;;;;;;;;;;;;;;;5091437;28;955;-67
2023/09/30 03:31:32;;;;;;;;;;;;;;;;;;5091878;28;805;-67
2023/09/30 03:33:57;;;;;;;;;;;;;;;;;;5090903;28;875;-67
2023/09/30 03:36:24;;;;;;;;;;;;;;;;;;5098843;28;1210;-66
2023/09/30 03:38:50;;;;;;;;;;;;;;;;;;5108614;28;1354;-67
2023/09/30 03:41:15;;;;;;;;;;;;;;;;;;5109449;28;1218;-67
2023/09/30 03:43:41;;;;;;;;;;;;;;;;;;5111649;28;848;-66
2023/09/30 03:46:09;;;;;;;;;;;;;;;;;;5093019;28;1981;-67
2023/09/30 03:48:39;;;;;;;;;;;;;;;;;;5111515;28;1018;-67
2023/09/30 03:51:25;;;;;;;;;;;;;;;;;;5109717;28;1320;-67
2023/09/30 03:53:50;;;;;;;;;;;;;;;;;;5111194;28;839;-66
2023/09/30 03:56:15;;;;;;;;;;;;;;;;;;5110661;28;1193;-66
2023/09/30 03:58:42;;;;;;;;;;;;;;;;;;5093651;28;1195;-66
2023/09/30 04:01:07;;;;;;;;;;;;;;;;;;5111250;28;871;-66
2023/09/30 04:03:33;;;;;;;;;;;;;;;;;;5111529;28;844;-66
2023/09/30 04:05:58;;;;;;;;;;;;;;;;;;5110863;28;1901;-67
2023/09/30 04:08:24;;;;;;;;;;;;;;;;;;5111634;28;923;-67
2023/09/30 04:10:49;;;;;;;;;;;;;;;;;;5109837;28;1342;-67
2023/09/30 04:13:14;;;;;;;;;;;;;;;;;;5110105;28;840;-67
2023/09/30 04:15:39;;;;;;;;;;;;;;;;;;5110050;28;1262;-66
2023/09/30 04:18:08;;;;;;;;;;;;;;;;;;5110646;28;959;-67
2023/09/30 04:20:33;;;;;;;;;;;;;;;;;;5111567;28;923;-66
2023/09/30 04:22:58;;;;;;;;;;;;;;;;;;5109270;28;999;-66
2023/09/30 04:25:26;;;;;;;;;;;;;;;;;;5111562;28;1951;-67
2023/09/30 04:27:52;;;;;;;;;;;;;;;;;;5110978;28;1407;-67
2023/09/30 04:30:18;;;;;;;;;;;;;;;;;;5110525;28;1296;-67
2023/09/30 04:32:43;;;;;;;;;;;;;;;;;;5110791;28;856;-67
2023/09/30 04:35:09;;;;;;;;;;;;;;;;;;5112021;28;853;-67
2023/09/30 04:37:36;;;;;;;;;;;;;;;;;;5114955;28;1246;-66
2023/09/30 04:40:02;;;;;;;;;;;;;;;;;;5115303;28;820;-67
2023/09/30 04:42:27;;;;;;;;;;;;;;;;;;5116045;28;867;-67
2023/09/30 04:44:53;;;;;;;;;;;;;;;;;;5115068;28;907;-67
2023/09/30 04:47:19;;;;;;;;;;;;;;;;;;5115297;28;1969;-66
2023/09/30 04:49:44;;;;;;;;;;;;;;;;;;5115581;28;915;-67
2023/09/30 04:52:09;;;;;;;;;;;;;;;;;;5114873;28;1066;-67
2023/09/30 04:54:35;;;;;;;;;;;;;;;;;;5115117;28;1026;-66
2023/09/30 04:57:00;;;;;;;;;;;;;;;;;;5114448;28;1026;-67
2023/09/30 04:59:26;;;;;;;;;;;;;;;;;;5114045;28;1537;-67
2023/09/30 05:01:51;;;;;;;;;;;;;;;;;;5106189;27;1178;-67
2023/09/30 05:04:17;;;;;;;;;;;;;;;;;;5092719;28;1160;-66
2023/09/30 05:06:42;;;;;;;;;;;;;;;;;;5094224;28;1945;-67
2023/09/30 05:09:07;;;;;;;;;;;;;;;;;;5093716;28;1161;-67
2023/09/30 05:11:33;;;;;;;;;;;;;;;;;;5094318;28;883;-66
2023/09/30 05:13:59;;;;;;;;;;;;;;;;;;5092280;28;1318;-66
2023/09/30 05:16:27;;;;;;;;;;;;;;;;;;5093010;28;1080;-67
2023/09/30 05:18:52;;;;;;;;;;;;;;;;;;5092396;28;1139;-67
2023/09/30 05:21:17;;;;;;;;;;;;;;;;;;5093965;28;904;-67
2023/09/30 05:23:42;;;;;;;;;;;;;;;;;;5093003;28;1270;-67
2023/09/30 05:26:08;;;;;;;;;;;;;;;;;;5093385;28;1906;-67
2023/09/30 05:28:34;;;;;;;;;;;;;;;;;;5093993;28;895;-67
2023/09/30 05:31:00;;;;;;;;;;;;;;;;;;5093751;28;919;-67
2023/09/30 05:33:27;;;;;;;;;;;;;;;;;;5094097;28;844;-67
2023/09/30 05:35:52;;;;;;;;;;;;;;;;;;5093431;28;844;-67
2023/09/30 05:38:20;;;;;;;;;;;;;;;;;;5101447;28;1239;-67
2023/09/30 05:40:45;;;;;;;;;;;;;;;;;;5111589;28;1182;-67
2023/09/30 05:43:13;;;;;;;;;;;;;;;;;;5112930;28;1002;-67
2023/09/30 05:45:40;;;;;;;;;;;;;;;;;;5112686;28;1957;-66
2023/09/30 05:48:06;;;;;;;;;;;;;;;;;;5110653;28;844;-66
2023/09/30 05:50:33;;;;;;;;;;;;;;;;;;5114452;28;848;-66
2023/09/30 05:52:59;;;;;;;;;;;;;;;;;;5113623;28;902;-66
2023/09/30 05:55:25;;;;;;;;;;;;;;;;;;5112903;28;1317;-66
2023/09/30 05:57:50;;;;;;;;;;;;;;;;;;5113313;28;816;-66
2023/09/30 06:00:35;;;;;;;;;;;;;;;;;;5112345;28;895;-66
2023/09/30 06:03:00;;;;;;;;;;;;;;;;;;5113888;28;931;-66
2023/09/30 06:05:26;;;;;;;;;;;;;;;;;;5113536;28;1886;-66
2023/09/30 06:07:53;;;;;;;;;;;;;;;;;;5113979;28;877;-66
2023/09/30 06:10:21;;;;;;;;;;;;;;;;;;5114738;28;903;-66
2023/09/30 06:12:56;;;;;;;;;;;;;;;;;;5114222;28;872;-66
2023/09/30 06:15:25;;;;;;;;;;;;;;;;;;5114677;28;1000;-66
2023/09/30 06:17:54;;;;;;;;;;;;;;;;;;5113316;28;864;-66
2023/09/30 06:20:21;;;;;;;;;;;;;;;;;;5113502;28;971;-66
2023/09/30 06:22:49;;;;;;;;;;;;;;;;;;5113898;28;889;-66
2023/09/30 06:25:16;;;;;;;;;;;;;;;;;;5113511;28;836;-66
2023/09/30 06:27:42;;;;;;;;;;;;;;;;;;5114115;28;1886;-66
2023/09/30 06:30:08;;;;;;;;;;;;;;;;;;5113201;28;1053;-66
2023/09/30 06:32:35;;;;;;;;;;;;;;;;;;5113980;28;931;-67
2023/09/30 06:35:00;;;;;;;;;;;;;;;;;;5113924;28;860;-65
2023/09/30 06:37:26;;;;;;;;;;;;;;;;;;5113930;28;1102;-66
2023/09/30 06:39:51;;;;;;;;;;;;;;;;;;5113416;28;900;-66
2023/09/30 06:42:17;;;;;;;;;;;;;;;;;;5112991;28;833;-65
2023/09/30 06:44:42;;;;;;;;;;;;;;;;;;5113232;28;892;-66
2023/09/30 06:47:12;;;;;;;;;;;;;;;;;;5112332;28;1910;-66
2023/09/30 06:49:37;;;;;;;;;;;;;;;;;;5113349;28;844;-67
2023/09/30 06:52:03;;;;;;;;;;;;;;;;;;5112607;28;860;-67
2023/09/30 06:54:28;;;;;;;;;;;;;;;;;;5112844;28;1002;-65
2023/09/30 06:56:54;;;;;;;;;;;;;;;;;;5112659;28;859;-65
2023/09/30 06:59:19;;;;;;;;;;;;;;;;;;5112512;28;1046;-66
2023/09/30 07:01:45;;;;;;;;;;;;;;;;;;5112861;28;833;-66
2023/09/30 07:04:11;;;;;;;;;;;;;;;;;;5111456;28;1006;-66
2023/09/30 07:06:36;;;;;;;;;;;;;;;;;;5113217;28;1955;-67
2023/09/30 07:09:02;;;;;;;;;;;;;;;;;;5111645;28;1239;-67
2023/09/30 07:11:29;;;;;;;;;;;;;;;;;;5113078;28;789;-66
2023/09/30 07:13:54;;;;;;;;;;;;;;;;;;5112499;28;939;-65
2023/09/30 07:16:19;;;;;;;;;;;;;;;;;;5111233;28;1285;-64
2023/09/30 07:18:44;;;;;;;;;;;;;;;;;;5112509;28;1047;-66
2023/09/30 07:21:09;;;;;;;;;;;;;;;;;;5112215;28;1010;-66
2023/09/30 07:23:35;;;;;;;;;;;;;;;;;;5111592;28;833;-67
2023/09/30 07:26:00;;;;;;;;;;;;;;;;;;5112270;28;1901;-67
2023/09/30 07:28:25;;;;;;;;;;;;;;;;;;5112784;28;925;-67
2023/09/30 07:30:50;;;;;;;;;;;;;;;;;;5112248;28;887;-67
2023/09/30 07:33:16;;;;;;;;;;;;;;;;;;5112228;28;868;-67
2023/09/30 07:35:41;;;;;;;;;;;;;;;;;;5112065;28;1003;-67
2023/09/30 07:38:06;;;;;;;;;;;;;;;;;;5111967;28;1320;-68
2023/09/30 07:40:33;;;;;;;;;;;;;;;;;;5112239;28;975;-65
2023/09/30 07:42:58;;;;;;;;;;;;;;;;;;5112322;28;852;-67
2023/09/30 07:45:23;;;;;;;;;;;;;;;;;;5095706;28;1326;-65
2023/09/30 07:47:49;;;;;;;;;;;;;;;;;;5113765;28;1918;-66
2023/09/30 07:50:14;;;;;;;;;;;;;;;;;;5113337;28;852;-66
2023/09/30 07:52:41;;;;;;;;;;;;;;;;;;5113999;28;1037;-65
2023/09/30 07:55:06;;;;;;;;;;;;;;;;;;5113118;28;927;-66
2023/09/30 07:57:33;;;;;;;;;;;;;;;;;;5113685;28;864;-65
2023/09/30 07:59:58;;;;;;;;;;;;;;;;;;5112036;28;812;-65
2023/09/30 08:02:27;;;;;;;;;;;;;;;;;;5111144;28;1217;-66
2023/09/30 08:04:55;;;;;;;;;;;;;;;;;;5112366;28;881;-67
2023/09/30 08:07:20;;;;;;;;;;;;;;;;;;5113211;28;1898;-68
2023/09/30 08:09:47;;;;;;;;;;;;;;;;;;5110789;28;840;-64
2023/09/30 08:12:12;;;;;;;;;;;;;;;;;;5111726;28;1073;-67
2023/09/30 08:14:37;;;;;;;;;;;;;;;;;;5111524;28;865;-68
2023/09/30 08:17:03;;;;;;;;;;;;;;;;;;5111906;28;832;-68
2023/09/30 08:19:28;;;;;;;;;;;;;;;;;;5112263;28;907;-66
2023/09/30 08:21:53;;;;;;;;;;;;;;;;;;5093502;28;1096;-66
2023/09/30 08:24:19;;;;;;;;;;;;;;;;;;5111737;28;902;-66
2023/09/30 08:26:44;;;;;;;;;;;;;;;;;;5111709;28;1898;-66
2023/09/30 08:29:11;;;;;;;;;;;;;;;;;;5111707;28;845;-66
2023/09/30 08:31:36;;;;;;;;;;;;;;;;;;5111853;28;888;-66
2023/09/30 08:34:03;;;;;;;;;;;;;;;;;;5111475;28;962;-66
2023/09/30 08:36:30;;;;;;;;;;;;;;;;;;5112053;28;891;-66
2023/09/30 08:38:55;;;;;;;;;;;;;;;;;;5109513;28;1346;-66
2023/09/30 08:41:28;;;;;;;;;;;;;;;;;;5111866;28;963;-65
2023/09/30 08:43:55;;;;;;;;;;;;;;;;;;5111394;28;1065;-65
2023/09/30 08:46:21;;;;;;;;;;;;;;;;;;5111611;28;1975;-65
2023/09/30 08:48:46;;;;;;;;;;;;;;;;;;5109863;28;1269;-65
2023/09/30 08:51:11;;;;;;;;;;;;;;;;;;5110913;28;892;-65
2023/09/30 08:53:36;;;;;;;;;;;;;;;;;;5110054;28;915;-66
2023/09/30 08:56:07;;;;;;;;;;;;;;;;;;5111315;28;895;-65
2023/09/30 08:58:33;;;;;;;;;;;;;;;;;;5111338;28;883;-64
2023/09/30 09:00:58;;;;;;;;;;;;;;;;;;5110878;28;932;-66
2023/09/30 09:03:27;;;;;;;;;;;;;;;;;;5111623;28;841;-65
2023/09/30 09:06:04;;;;;;;;;;;;;;;;;;5111427;28;1964;-65
2023/09/30 09:08:30;;;;;;;;;;;;;;;;;;5111173;28;927;-65
2023/09/30 09:10:56;;;;;;;;;;;;;;;;;;5111322;28;896;-65
2023/09/30 09:13:21;;;;;;;;;;;;;;;;;;5110891;28;911;-65
2023/09/30 09:15:47;;;;;;;;;;;;;;;;;;5111761;28;920;-66
2023/09/30 09:18:14;;;;;;;;;;;;;;;;;;5110688;28;852;-65
2023/09/30 09:20:39;;;;;;;;;;;;;;;;;;5111150;28;792;-64
2023/09/30 09:23:06;;;;;;;;;;;;;;;;;;5115073;28;801;-64
2023/09/30 09:25:37;;;;;;;;;;;;;;;;;;5116365;28;1960;-64
2023/09/30 09:28:03;;;;;;;;;;;;;;;;;;5115589;28;990;-64
2023/09/30 09:30:28;;;;;;;;;;;;;;;;;;5115749;28;830;-64
2023/09/30 09:32:54;;;;;;;;;;;;;;;;;;5115802;28;828;-65
2023/09/30 09:35:20;;;;;;;;;;;;;;;;;;5116345;28;1080;-64
2023/09/30 09:37:54;;;;;;;;;;;;;;;;;;5114553;28;1068;-65
2023/09/30 09:40:23;;;;;;;;;;;;;;;;;;5115757;28;892;-64
2023/09/30 09:42:50;;;;;;;;;;;;;;;;;;5114813;28;1849;-65
2023/09/30 09:45:16;;;;;;;;;;;;;;;;;;5115266;28;812;-65
2023/09/30 09:47:41;;;;;;;;;;;;;;;;;;5114396;28;1906;-65
2023/09/30 09:50:07;;;;;;;;;;;;;;;;;;5113949;28;832;-65
2023/09/30 09:52:34;;;;;;;;;;;;;;;;;;5112975;28;1301;-65
2023/09/30 09:55:01;;;;;;;;;;;;;;;;;;5113955;28;843;-65
2023/09/30 09:57:27;;;;;;;;;;;;;;;;;;5114140;28;777;-64
2023/09/30 09:59:53;;;;;;;;;;;;;;;;;;5112827;28;1925;-64
2023/09/30 10:02:19;;;;;;;;;;;;;;;;;;5113777;27;896;-64
2023/09/30 10:04:45;;;;;;;;;;;;;;;;;;5112392;28;920;-64
2023/09/30 10:07:20;;;;;;;;;;;;;;;;;;5113559;27;1977;-65
2023/09/30 10:09:47;;;;;;;;;;;;;;;;;;5113626;28;856;-64
2023/09/30 10:12:13;;;;;;;;;;;;;;;;;;5113165;28;916;-64
2023/09/30 10:14:39;;;;;;;;;;;;;;;;;;5113820;28;1069;-67
2023/09/30 10:17:04;;;;;;;;;;;;;;;;;;5113442;28;947;-65
2023/09/30 10:19:30;;;;;;;;;;;;;;;;;;5113916;27;1004;-64
2023/09/30 10:22:14;;;;;;;;;;;;;;;;;;5113932;28;895;-64
2023/09/30 10:24:39;;;;;;;;;;;;;;;;;;5113922;28;903;-64
2023/09/30 10:27:23;;;;;;;;;;;;;;;;;;5113265;28;1988;-64
2023/09/30 10:29:54;;;;;;;;;;;;;;;;;;5113487;28;922;-65
2023/09/30 10:32:19;;;;;;;;;;;;;;;;;;5113058;28;841;-64
2023/09/30 10:34:48;;;;;;;;;;;;;;;;;;5112504;28;1010;-64
2023/09/30 10:37:20;;;;;;;;;;;;;;;;;;5112962;28;1253;-64
2023/09/30 10:39:53;;;;;;;;;;;;;;;;;;5113491;28;797;-64
2023/09/30 10:42:37;;;;;;;;;;;;;;;;;;5111816;28;1111;-64
2023/09/30 10:45:04;;;;;;;;;;;;;;;;;;5112724;28;860;-65
2023/09/30 10:47:30;;;;;;;;;;;;;;;;;;5113088;28;1914;-65
2023/09/30 10:49:56;;;;;;;;;;;;;;;;;;5112875;28;868;-65
2023/09/30 10:52:23;;;;;;;;;;;;;;;;;;5113022;28;911;-65
2023/09/30 10:54:48;;;;;;;;;;;;;;;;;;5112858;28;899;-65
2023/09/30 10:57:26;;;;;;;;;;;;;;;;;;5112789;28;1002;-65
2023/09/30 11:00:06;;;;;;;;;;;;;;;;;;5113603;28;942;-64
2023/09/30 11:02:31;;;;;;;;;;;;;;;;;;5113870;28;903;-64
2023/09/30 11:04:57;;;;;;;;;;;;;;;;;;5113994;28;876;-64
2023/09/30 11:07:23;;;;;;;;;;;;;;;;;;5113631;28;1902;-64
2023/09/30 11:09:49;;;;;;;;;;;;;;;;;;5113581;28;883;-64
2023/09/30 11:12:15;;;;;;;;;;;;;;;;;;5114249;28;848;-64
2023/09/30 11:14:40;;;;;;;;;;;;;;;;;;5113989;28;930;-64
2023/09/30 11:17:06;;;;;;;;;;;;;;;;;;5113930;28;899;-64
2023/09/30 11:19:46;;;;;;;;;;;;;;;;;;5112114;28;883;-64
2023/09/30 11:22:11;;;;;;;;;;;;;;;;;;5112851;28;948;-65
2023/09/30 11:24:37;;;;;;;;;;;;;;;;;;5112546;28;911;-65
2023/09/30 11:27:03;;;;;;;;;;;;;;;;;;5111962;28;1901;-65
2023/09/30 11:29:28;;;;;;;;;;;;;;;;;;5112809;28;926;-64
2023/09/30 11:31:53;;;;;;;;;;;;;;;;;;5111934;28;1152;-64
2023/09/30 11:34:19;;;;;;;;;;;;;;;;;;5111353;28;1290;-64
2023/09/30 11:36:49;;;;;;;;;;;;;;;;;;5112491;28;876;-64
2023/09/30 11:39:25;;;;;;;;;;;;;;;;;;5112061;28;1085;-64
2023/09/30 11:41:50;;;;;;;;;;;;;;;;;;5111648;28;899;-64
2023/09/30 11:44:18;;;;;;;;;;;;;;;;;;5111962;28;832;-64
2023/09/30 11:46:48;;;;;;;;;;;;;;;;;;5112073;28;1922;-64
2023/09/30 11:49:23;;;;;;;;;;;;;;;;;;5111532;28;1246;-65
2023/09/30 11:51:48;;;;;;;;;;;;;;;;;;5090060;28;1144;-65
2023/09/30 11:54:14;;;;;;;;;;;;;;;;;;5093665;28;1060;-65
2023/09/30 11:56:39;;;;;;;;;;;;;;;;;;5109472;28;1159;-65
2023/09/30 11:59:04;;;;;;;;;;;;;;;;;;5109879;28;1309;-65
2023/09/30 12:01:32;;;;;;;;;;;;;;;;;;5112028;28;904;-64
2023/09/30 12:03:57;;;;;;;;;;;;;;;;;;5110052;28;1241;-64
2023/09/30 12:06:22;;;;;;;;;;;;;;;;;;5112293;28;1886;-64
2023/09/30 12:08:48;;;;;;;;;;;;;;;;;;5111659;28;904;-65
2023/09/30 12:11:15;;;;;;;;;;;;;;;;;;5111619;28;820;-65
2023/09/30 12:13:41;;;;;;;;;;;;;;;;;;5111877;28;927;-65
2023/09/30 12:16:06;;;;;;;;;;;;;;;;;;5111962;28;843;-64
2023/09/30 12:18:32;;;;;;;;;;;;;;;;;;5112167;28;987;-64
2023/09/30 12:20:57;;;;;;;;;;;;;;;;;;5111634;28;919;-64
2023/09/30 12:23:23;;;;;;;;;;;;;;;;;;5112107;28;840;-65
2023/09/30 12:25:48;;;;;;;;;;;;;;;;;;5112222;28;1894;-64
2023/09/30 12:28:15;;;;;;;;;;;;;;;;;;5111435;28;904;-64
2023/09/30 12:30:43;;;;;;;;;;;;;;;;;;5110949;28;1554;-66
2023/09/30 12:33:09;;;;;;;;;;;;;;;;;;5110485;28;1447;-64
2023/09/30 12:35:35;;;;;;;;;;;;;;;;;;5112454;28;813;-64
2023/09/30 12:38:00;;;;;;;;;;;;;;;;;;5111337;28;1401;-64
2023/09/30 12:40:26;;;;;;;;;;;;;;;;;;5112293;28;911;-63
2023/09/30 12:42:51;;;;;;;;;;;;;;;;;;5112636;28;856;-64
2023/09/30 12:45:17;;;;;;;;;;;;;;;;;;5112013;28;1417;-64
2023/09/30 12:47:43;;;;;;;;;;;;;;;;;;5112808;28;1914;-64
2023/09/30 12:50:08;;;;;;;;;;;;;;;;;;5111485;28;694;-65
2023/09/30 12:52:34;;;;;;;;;;;;;;;;;;5112687;28;884;-64
2023/09/30 12:54:59;;;;;;;;;;;;;;;;;;5111315;28;1206;-64
2023/09/30 12:57:25;;;;;;;;;;;;;;;;;;5114074;28;864;-64
2023/09/30 12:59:51;;;;;;;;;;;;;;;;;;5115802;27;880;-64
2023/09/30 13:02:18;;;;;;;;;;;;;;;;;;5115324;28;907;-64
2023/09/30 13:04:44;;;;;;;;;;;;;;;;;;5113834;28;931;-64
2023/09/30 13:07:12;;;;;;;;;;;;;;;;;;5115222;28;1922;-64
2023/09/30 13:09:41;;;;;;;;;;;;;;;;;;5113815;28;1269;-64
2023/09/30 13:12:07;;;;;;;;;;;;;;;;;;5114237;28;1935;-64
2023/09/30 13:14:32;;;;;;;;;;;;;;;;;;5115164;28;998;-64
2023/09/30 13:16:57;;;;;;;;;;;;;;;;;;5113056;28;1321;-64
2023/09/30 13:19:23;;;;;;;;;;;;;;;;;;5115516;28;1185;-64
2023/09/30 13:21:52;;;;;;;;;;;;;;;;;;5114734;28;894;-65
2023/09/30 13:24:19;;;;;;;;;;;;;;;;;;5114256;28;955;-64
2023/09/30 13:26:44;;;;;;;;;;;;;;;;;;5114943;28;1956;-64
2023/09/30 13:29:11;;;;;;;;;;;;;;;;;;5113003;28;1058;-65
2023/09/30 13:31:37;;;;;;;;;;;;;;;;;;5115017;28;884;-66
2023/09/30 13:34:03;;;;;;;;;;;;;;;;;;5112879;28;852;-65
2023/09/30 13:36:28;;;;;;;;;;;;;;;;;;5114791;28;868;-65
2023/09/30 13:38:53;;;;;;;;;;;;;;;;;;5114718;28;1328;-64
2023/09/30 13:41:18;;;;;;;;;;;;;;;;;;5114249;28;1371;-65
2023/09/30 13:43:44;;;;;;;;;;;;;;;;;;5114495;28;1182;-64
2023/09/30 13:46:09;;;;;;;;;;;;;;;;;;5112297;28;1968;-64
2023/09/30 13:48:34;;;;;;;;;;;;;;;;;;5114489;28;822;-65
2023/09/30 13:51:06;;;;;;;;;;;;;;;;;;5112420;28;1261;-64
2023/09/30 13:53:32;;;;;;;;;;;;;;;;;;5107267;28;1238;-65
2023/09/30 13:55:57;;;;;;;;;;;;;;;;;;5096090;28;1143;-65
2023/09/30 13:58:22;;;;;;;;;;;;;;;;;;5112989;28;1178;-64
2023/09/30 14:00:48;;;;;;;;;;;;;;;;;;5114538;28;773;-64
2023/09/30 14:03:13;;;;;;;;;;;;;;;;;;5114280;28;875;-65
2023/09/30 14:05:38;;;;;;;;;;;;;;;;;;5114376;28;995;-65
2023/09/30 14:08:06;;;;;;;;;;;;;;;;;;5112600;28;1901;-64
2023/09/30 14:10:31;;;;;;;;;;;;;;;;;;5113534;28;895;-65
2023/09/30 14:12:57;;;;;;;;;;;;;;;;;;5114040;28;888;-65
2023/09/30 14:15:22;;;;;;;;;;;;;;;;;;5113611;28;1552;-65
2023/09/30 14:17:48;;;;;;;;;;;;;;;;;;5114296;28;904;-65
2023/09/30 14:20:13;;;;;;;;;;;;;;;;;;5113720;28;1006;-65
2023/09/30 14:22:38;;;;;;;;;;;;;;;;;;5114857;28;899;-65
2023/09/30 14:25:04;;;;;;;;;;;;;;;;;;5113917;28;991;-65
2023/09/30 14:27:29;;;;;;;;;;;;;;;;;;5113907;28;1909;-65
2023/09/30 14:29:54;;;;;;;;;;;;;;;;;;5114290;28;860;-64
2023/09/30 14:32:20;;;;;;;;;;;;;;;;;;5113621;28;899;-65
2023/09/30 14:34:45;;;;;;;;;;;;;;;;;;5114135;28;848;-65
2023/09/30 14:37:10;;;;;;;;;;;;;;;;;;5113260;28;1113;-64
2023/09/30 14:39:36;;;;;;;;;;;;;;;;;;5112728;28;880;-64
2023/09/30 14:42:01;;;;;;;;;;;;;;;;;;5113320;28;848;-65
2023/09/30 14:44:27;;;;;;;;;;;;;;;;;;5114474;28;916;-65
2023/09/30 14:46:52;;;;;;;;;;;;;;;;;;5113788;28;1925;-64
2023/09/30 14:49:18;;;;;;;;;;;;;;;;;;5111823;28;1258;-64
2023/09/30 14:51:44;;;;;;;;;;;;;;;;;;5114175;28;960;-65
2023/09/30 14:54:09;;;;;;;;;;;;;;;;;;5112458;28;891;-65
2023/09/30 14:56:35;;;;;;;;;;;;;;;;;;5112191;28;941;-65
2023/09/30 14:59:00;;;;;;;;;;;;;;;;;;5112713;28;958;-66
2023/09/30 15:01:26;;;;;;;;;;;;;;;;;;5111913;28;974;-65
2023/09/30 15:03:51;;;;;;;;;;;;;;;;;;5112747;28;884;-65
2023/09/30 15:06:16;;;;;;;;;;;;;;;;;;5109395;28;1972;-65
2023/09/30 15:08:42;;;;;;;;;;;;;;;;;;5091400;28;935;-65
2023/09/30 15:11:12;;;;;;;;;;;;;;;;;;5090368;28;875;-64
2023/09/30 15:13:37;;;;;;;;;;;;;;;;;;5091129;28;1230;-65
2023/09/30 15:16:03;;;;;;;;;;;;;;;;;;5089938;28;821;-65
2023/09/30 15:18:28;;;;;;;;;;;;;;;;;;5092169;28;900;-65
2023/09/30 15:20:54;;;;;;;;;;;;;;;;;;5092607;28;781;-65
2023/09/30 15:23:19;;;;;;;;;;;;;;;;;;5091629;28;1031;-65
2023/09/30 15:25:44;;;;;;;;;;;;;;;;;;5090874;28;1103;-65
2023/09/30 15:28:10;;;;;;;;;;;;;;;;;;5091388;28;1973;-64
2023/09/30 15:30:35;;;;;;;;;;;;;;;;;;5091138;28;1367;-64
2023/09/30 15:33:02;;;;;;;;;;;;;;;;;;5091439;28;1007;-65
2023/09/30 15:35:27;;;;;;;;;;;;;;;;;;5092132;28;978;-65
2023/09/30 15:37:53;;;;;;;;;;;;;;;;;;5091940;28;1100;-65
2023/09/30 15:40:19;;;;;;;;;;;;;;;;;;5090250;28;852;-65
2023/09/30 15:42:45;;;;;;;;;;;;;;;;;;5091823;28;848;-65
2023/09/30 15:45:12;;;;;;;;;;;;;;;;;;5091306;28;849;-64
2023/09/30 15:47:37;;;;;;;;;;;;;;;;;;5090467;28;1913;-64
2023/09/30 15:50:03;;;;;;;;;;;;;;;;;;5091357;28;829;-65
2023/09/30 15:52:29;;;;;;;;;;;;;;;;;;5092605;28;875;-64
2023/09/30 15:54:56;;;;;;;;;;;;;;;;;;5093574;28;864;-65
2023/09/30 15:57:22;;;;;;;;;;;;;;;;;;5075283;28;2100;-65
2023/09/30 15:59:47;;;;;;;;;;;;;;;;;;5092152;28;1320;-65
2023/09/30 16:02:13;;;;;;;;;;;;;;;;;;5092218;28;1007;-65
2023/09/30 16:04:39;;;;;;;;;;;;;;;;;;5093355;28;983;-65
2023/09/30 16:07:05;;;;;;;;;;;;;;;;;;5093369;28;1875;-65
2023/09/30 16:09:33;;;;;;;;;;;;;;;;;;5092876;28;924;-65
2023/09/30 16:12:02;;;;;;;;;;;;;;;;;;5092569;28;869;-64
2023/09/30 16:14:27;;;;;;;;;;;;;;;;;;5093662;28;841;-64
2023/09/30 16:16:55;;;;;;;;;;;;;;;;;;5075385;28;1262;-64
2023/09/30 16:19:20;;;;;;;;;;;;;;;;;;5075194;28;1302;-65
2023/09/30 16:21:45;;;;;;;;;;;;;;;;;;5092709;28;828;-65
2023/09/30 16:24:11;;;;;;;;;;;;;;;;;;5093354;28;829;-64
2023/09/30 16:26:36;;;;;;;;;;;;;;;;;;5075665;28;2323;-65
2023/09/30 16:29:03;;;;;;;;;;;;;;;;;;5091647;28;1226;-64
2023/09/30 16:31:28;;;;;;;;;;;;;;;;;;5091859;28;1360;-65
2023/09/30 16:33:56;;;;;;;;;;;;;;;;;;5079178;28;1455;-64
2023/09/30 16:36:22;;;;;;;;;;;;;;;;;;5096091;28;901;-64
2023/09/30 16:38:47;;;;;;;;;;;;;;;;;;5095443;28;1215;-64
2023/09/30 16:41:14;;;;;;;;;;;;;;;;;;5078045;28;1302;-64
2023/09/30 16:43:40;;;;;;;;;;;;;;;;;;5096553;28;888;-64
2023/09/30 16:46:06;;;;;;;;;;;;;;;;;;5093769;28;1968;-64
2023/09/30 16:48:31;;;;;;;;;;;;;;;;;;5093777;28;1228;-64
2023/09/30 16:50:56;;;;;;;;;;;;;;;;;;5097062;28;942;-64
2023/09/30 16:53:22;;;;;;;;;;;;;;;;;;5096150;28;1053;-64
2023/09/30 16:55:47;;;;;;;;;;;;;;;;;;5093421;28;1210;-65
2023/09/30 16:58:13;;;;;;;;;;;;;;;;;;5076044;28;1353;-65
2023/09/30 17:00:38;;;;;;;;;;;;;;;;;;5093219;28;1254;-65
2023/09/30 17:03:06;;;;;;;;;;;;;;;;;;5094292;28;1271;-65
2023/09/30 17:05:33;;;;;;;;;;;;;;;;;;5095161;28;939;-64
2023/09/30 17:07:59;;;;;;;;;;;;;;;;;;5095496;28;1929;-65